createdAt,value
2024-02-02T00:00:27.792Z,87.41
2024-02-02T00:03:30.560Z,86.93
2024-02-02T00:06:33.039Z,86.67
2024-02-02T00:09:35.727Z,85.73
2024-02-02T00:12:38.513Z,85.51
2024-02-02T00:15:40.971Z,85.90
2024-02-02T00:18:43.354Z,85.96
2024-02-02T00:21:45.694Z,85.54
2024-02-02T00:24:49.050Z,86.13
2024-02-02T00:27:51.296Z,86.31
2024-02-02T00:30:53.509Z,85.47
2024-02-02T00:33:55.814Z,85.96
2024-02-02T00:36:58.206Z,86.69
2024-02-02T00:40:00.587Z,85.75
2024-02-02T00:43:03.146Z,85.34
2024-02-02T00:46:05.747Z,84.99
2024-02-02T00:49:07.949Z,85.32
2024-02-02T00:52:10.252Z,85.66
2024-02-02T00:55:12.369Z,85.66
2024-02-02T00:58:14.431Z,84.84
2024-02-02T01:01:16.541Z,84.83
2024-02-02T01:04:18.776Z,84.54
2024-02-02T01:07:21.134Z,83.94
2024-02-02T01:10:23.605Z,84.88
2024-02-02T01:13:25.926Z,83.99
2024-02-02T01:16:28.860Z,84.50
2024-02-02T01:19:32.289Z,83.52
2024-02-02T01:22:34.651Z,83.81
2024-02-02T01:25:36.815Z,83.52
2024-02-02T01:28:39.233Z,83.80
2024-02-02T01:31:41.521Z,83.71
2024-02-02T01:34:43.826Z,83.24
2024-02-02T01:37:46.201Z,83.31
2024-02-02T01:40:48.298Z,84.02
2024-02-02T01:43:50.600Z,83.24
2024-02-02T01:46:52.778Z,83.21
2024-02-02T01:49:55.064Z,82.76
2024-02-02T01:52:57.319Z,83.10
2024-02-02T01:55:59.538Z,82.51
2024-02-02T01:59:04.758Z,82.38
2024-02-02T02:02:07.937Z,81.84
2024-02-02T02:05:11.259Z,82.02
2024-02-02T02:08:13.556Z,81.99
2024-02-02T02:11:16.118Z,81.31
2024-02-02T02:14:18.489Z,81.73
2024-02-02T02:17:21.093Z,81.43
2024-02-02T02:20:26.983Z,81.44
2024-02-02T02:23:29.643Z,81.96
2024-02-02T02:26:32.197Z,80.87
2024-02-02T02:29:34.432Z,81.00
2024-02-02T02:32:36.800Z,81.24
2024-02-02T02:35:39.019Z,81.47
2024-02-02T02:38:41.283Z,81.52
2024-02-02T02:41:43.559Z,81.10
2024-02-02T02:44:45.728Z,80.74
2024-02-02T02:47:48.059Z,79.96
2024-02-02T02:50:50.692Z,80.32
2024-02-02T02:53:52.894Z,79.70
2024-02-02T02:56:55.137Z,79.19
2024-02-02T02:59:57.605Z,78.91
2024-02-02T03:03:00.349Z,79.62
2024-02-02T03:06:02.827Z,79.36
2024-02-02T03:09:06.128Z,79.26
2024-02-02T03:12:08.934Z,79.55
2024-02-02T03:15:12.392Z,79.62
2024-02-02T03:18:15.983Z,79.77
2024-02-02T03:21:18.504Z,80.14
2024-02-02T03:24:21.848Z,79.22
2024-02-02T03:27:24.248Z,79.63
2024-02-02T03:30:28.738Z,78.80
2024-02-02T03:33:31.673Z,78.36
2024-02-02T03:36:34.459Z,79.07
2024-02-02T03:39:37.555Z,78.41
2024-02-02T03:42:39.852Z,78.27
2024-02-02T03:45:42.167Z,79.20
2024-02-02T03:48:44.582Z,78.66
2024-02-02T03:51:47.052Z,78.95
2024-02-02T03:54:49.542Z,78.62
2024-02-02T03:57:51.918Z,78.67
2024-02-02T04:00:54.243Z,78.29
2024-02-02T04:03:57.303Z,78.92
2024-02-02T04:07:00.169Z,78.51
2024-02-02T04:10:02.542Z,78.73
2024-02-02T04:13:06.451Z,78.26
2024-02-02T04:16:08.830Z,77.77
2024-02-02T04:19:16.367Z,77.63
2024-02-02T04:22:18.730Z,78.09
2024-02-02T04:25:21.024Z,77.91
2024-02-02T04:28:23.456Z,77.56
2024-02-02T04:31:25.707Z,78.18
2024-02-02T04:34:28.394Z,77.52
2024-02-02T04:37:31.194Z,77.74
2024-02-02T04:40:34.001Z,77.63
2024-02-02T04:43:36.631Z,78.28
2024-02-02T04:46:38.929Z,77.16
2024-02-02T04:49:41.236Z,78.05
2024-02-02T04:52:46.148Z,77.61
2024-02-02T04:55:48.365Z,77.72
2024-02-02T04:58:53.400Z,76.98
2024-02-02T05:01:55.746Z,76.72
2024-02-02T05:04:57.923Z,76.59
2024-02-02T05:08:00.158Z,76.55
2024-02-02T05:11:02.214Z,76.79
2024-02-02T05:14:04.522Z,76.30
2024-02-02T05:17:06.837Z,76.15
2024-02-02T05:20:09.008Z,76.55
2024-02-02T05:23:12.079Z,76.12
2024-02-02T05:26:14.272Z,77.10
2024-02-02T05:29:16.397Z,76.40
2024-02-02T05:32:18.641Z,76.33
2024-02-02T05:35:20.872Z,76.62
2024-02-02T05:38:23.048Z,76.65
2024-02-02T05:41:25.219Z,85.55
2024-02-02T05:44:27.396Z,86.78
2024-02-02T05:47:29.662Z,86.67
2024-02-02T05:50:32.673Z,86.49
2024-02-02T05:53:34.906Z,86.88
2024-02-02T05:56:37.285Z,87.30
2024-02-02T05:59:39.709Z,86.32
2024-02-02T06:02:43.321Z,86.69
2024-02-02T06:05:45.625Z,92.35
2024-02-02T06:08:48.008Z,100.00
2024-02-02T06:11:50.076Z,100.00
2024-02-02T06:14:52.232Z,99.45
2024-02-02T06:17:54.438Z,100.00
2024-02-02T06:20:56.711Z,100.00
2024-02-02T06:23:59.123Z,98.92
2024-02-02T06:27:01.322Z,100.00
2024-02-02T06:30:05.184Z,98.39
2024-02-02T06:33:08.134Z,94.55
2024-02-02T06:36:10.779Z,93.19
2024-02-02T06:39:13.467Z,92.88
2024-02-02T06:42:16.578Z,91.81
2024-02-02T06:45:18.907Z,90.77
2024-02-02T06:48:22.764Z,90.21
2024-02-02T06:51:25.454Z,87.21
2024-02-02T06:54:27.760Z,84.77
2024-02-02T06:57:33.592Z,83.65
2024-02-02T07:00:35.962Z,82.76
2024-02-02T07:03:38.853Z,83.18
2024-02-02T07:06:42.152Z,82.92
2024-02-02T07:09:57.614Z,84.66
2024-02-02T07:13:01.332Z,84.47
2024-02-02T07:16:04.133Z,81.00
2024-02-02T07:19:31.978Z,81.49
2024-02-02T07:22:42.514Z,82.14
2024-02-02T07:25:44.710Z,83.16
2024-02-02T07:28:46.779Z,82.61
2024-02-02T07:31:49.161Z,80.13
2024-02-02T07:34:55.360Z,78.61
2024-02-02T07:38:05.318Z,78.42
2024-02-02T07:41:13.662Z,76.75
2024-02-02T07:44:16.354Z,76.27
2024-02-02T07:47:18.468Z,76.06
2024-02-02T07:50:20.686Z,77.47
2024-02-02T07:53:24.100Z,77.65
2024-02-02T07:56:27.250Z,76.17
2024-02-02T07:59:29.465Z,76.65
2024-02-02T08:02:31.637Z,76.31
2024-02-02T08:05:38.569Z,77.34
2024-02-02T08:08:41.031Z,77.08
2024-02-02T08:11:43.229Z,77.09
2024-02-02T08:14:45.332Z,76.00
2024-02-02T08:17:47.441Z,75.44
2024-02-02T08:20:49.649Z,75.90
2024-02-02T08:23:51.801Z,75.98
2024-02-02T08:26:54.764Z,74.36
2024-02-02T08:29:57.227Z,76.32
2024-02-02T08:32:59.472Z,75.58
2024-02-02T08:36:01.834Z,75.75
2024-02-02T08:39:04.289Z,75.36
2024-02-02T08:42:15.857Z,74.64
2024-02-02T08:45:44.554Z,76.25
2024-02-02T08:48:48.408Z,82.16
2024-02-02T08:51:52.735Z,81.65
2024-02-02T08:54:55.062Z,83.28
2024-02-02T08:58:03.245Z,82.12
2024-02-02T09:01:08.120Z,81.40
2024-02-02T09:04:34.617Z,82.65
2024-02-02T09:07:37.365Z,83.90
2024-02-02T09:10:41.862Z,82.61
2024-02-02T09:13:45.864Z,82.38
2024-02-02T09:16:50.846Z,81.81
2024-02-02T09:19:56.819Z,81.26
2024-02-02T09:23:00.588Z,80.88
2024-02-02T09:26:12.594Z,80.12
2024-02-02T09:29:15.302Z,82.15
2024-02-02T09:32:17.613Z,82.68
2024-02-02T09:35:55.309Z,81.42
2024-02-02T09:38:58.772Z,81.52
2024-02-02T09:42:01.229Z,79.17
2024-02-02T09:45:28.797Z,81.31
2024-02-02T09:49:02.321Z,80.61
2024-02-02T09:52:39.784Z,79.40
2024-02-02T09:56:11.591Z,79.72
2024-02-02T09:59:23.901Z,80.90
2024-02-02T10:02:31.563Z,81.09
2024-02-02T10:06:04.791Z,81.78
2024-02-02T10:09:23.279Z,83.06
2024-02-02T10:12:49.607Z,81.09
2024-02-02T10:16:31.451Z,81.46
2024-02-02T10:19:45.991Z,81.13
2024-02-02T10:23:09.773Z,81.71
2024-02-02T10:26:29.831Z,81.10
2024-02-02T10:29:44.292Z,81.15
2024-02-02T10:32:55.529Z,80.72
2024-02-02T10:36:00.620Z,81.32
2024-02-02T10:39:24.360Z,82.30
2024-02-02T10:42:47.560Z,85.26
2024-02-02T10:46:07.933Z,88.42
2024-02-02T10:49:35.326Z,90.13
2024-02-02T10:52:59.089Z,89.20
2024-02-02T10:56:26.185Z,89.36
2024-02-02T10:59:34.625Z,88.68
2024-02-02T11:02:53.047Z,89.54
2024-02-02T11:06:11.125Z,89.99
2024-02-02T11:09:13.359Z,89.26
2024-02-02T11:12:24.765Z,88.51
2024-02-02T11:15:48.472Z,88.79
2024-02-02T11:19:22.598Z,87.87
2024-02-02T11:22:55.786Z,86.56
2024-02-02T11:26:08.510Z,86.91
2024-02-02T11:29:24.402Z,85.16
2024-02-02T11:32:45.750Z,85.01
2024-02-02T11:35:59.663Z,85.89
2024-02-02T11:39:01.855Z,85.03
2024-02-02T11:42:05.510Z,83.42
2024-02-02T11:45:19.433Z,84.14
2024-02-02T11:48:35.240Z,83.43
2024-02-02T11:51:38.804Z,82.33
2024-02-02T11:55:22.678Z,83.76
2024-02-02T11:58:26.610Z,82.05
2024-02-02T12:01:35.466Z,81.85
2024-02-02T12:04:43.452Z,81.53
2024-02-02T12:08:04.789Z,80.62
2024-02-02T12:11:11.212Z,80.81
2024-02-02T12:14:39.595Z,81.53
2024-02-02T12:17:41.974Z,78.85
2024-02-02T12:20:45.387Z,80.40
2024-02-02T12:23:48.685Z,80.55
2024-02-02T12:26:51.413Z,79.68
2024-02-02T12:29:53.694Z,79.78
2024-02-02T12:32:58.713Z,82.45
2024-02-02T12:36:07.127Z,80.37
2024-02-02T12:39:12.194Z,82.65
2024-02-02T12:42:14.496Z,83.37
2024-02-02T12:45:17.619Z,84.75
2024-02-02T12:48:21.177Z,87.11
2024-02-02T12:51:26.093Z,90.99
2024-02-02T12:54:28.263Z,91.00
2024-02-02T12:57:30.636Z,91.86
2024-02-02T13:00:33.261Z,91.85
2024-02-02T13:03:41.330Z,91.51
2024-02-02T13:06:47.151Z,90.81
2024-02-02T13:09:52.567Z,89.14
2024-02-02T13:12:54.805Z,89.42
2024-02-02T13:15:57.141Z,89.08
2024-02-02T13:19:00.156Z,88.38
2024-02-02T13:22:03.395Z,87.87
2024-02-02T13:25:11.745Z,87.63
2024-02-02T13:28:14.302Z,87.27
2024-02-02T13:31:20.040Z,86.64
2024-02-02T13:34:23.354Z,85.92
2024-02-02T13:37:38.974Z,85.21
2024-02-02T13:40:42.149Z,85.79
2024-02-02T13:43:45.718Z,85.49
2024-02-02T13:46:48.483Z,84.53
2024-02-02T13:49:57.101Z,84.20
2024-02-02T13:52:59.781Z,84.91
2024-02-02T13:56:11.516Z,85.32
2024-02-02T13:59:20.618Z,84.35
2024-02-02T14:02:25.570Z,86.32
2024-02-02T14:05:27.686Z,84.92
2024-02-02T14:08:40.563Z,84.17
2024-02-02T14:11:42.976Z,83.68
2024-02-02T14:14:45.682Z,84.04
2024-02-02T14:17:48.251Z,83.64
2024-02-02T14:20:50.537Z,83.75
2024-02-02T14:23:52.789Z,81.95
2024-02-02T14:26:57.157Z,82.31
2024-02-02T14:29:59.412Z,82.95
2024-02-02T14:33:13.632Z,82.00
2024-02-02T14:36:23.932Z,83.24
2024-02-02T14:39:27.704Z,82.24
2024-02-02T14:42:30.477Z,82.49
2024-02-02T14:45:34.548Z,82.35
2024-02-02T14:48:38.647Z,81.89
2024-02-02T14:51:42.144Z,85.64
2024-02-02T14:54:46.263Z,85.76
2024-02-02T14:57:49.399Z,85.18
2024-02-02T15:00:53.954Z,85.16
2024-02-02T15:03:56.213Z,85.14
2024-02-02T15:06:59.212Z,85.47
2024-02-02T15:10:01.674Z,86.03
2024-02-02T15:13:05.719Z,86.44
2024-02-02T15:16:10.804Z,85.19
2024-02-02T15:19:13.064Z,85.57
2024-02-02T15:22:15.274Z,86.16
2024-02-02T15:25:17.450Z,85.47
2024-02-02T15:28:19.620Z,86.47
2024-02-02T15:31:21.935Z,86.16
2024-02-02T15:34:24.734Z,86.62
2024-02-02T15:37:27.761Z,86.00
2024-02-02T15:40:29.996Z,86.23
2024-02-02T15:43:32.124Z,86.44
2024-02-02T15:46:34.335Z,84.67
2024-02-02T15:49:36.685Z,83.38
2024-02-02T15:52:40.262Z,83.42
2024-02-02T15:55:42.464Z,82.37
2024-02-02T15:58:45.040Z,82.86
2024-02-02T16:01:47.932Z,81.79
2024-02-02T16:04:57.189Z,81.97
2024-02-02T16:07:59.271Z,81.15
2024-02-02T16:11:01.307Z,80.76
2024-02-02T16:14:03.520Z,81.16
2024-02-02T16:17:07.755Z,83.16
2024-02-02T16:20:11.217Z,87.15
2024-02-02T16:23:13.361Z,87.42
2024-02-02T16:26:15.596Z,100.00
2024-02-02T16:29:17.861Z,100.00
2024-02-02T16:32:19.953Z,100.00
2024-02-02T16:35:25.643Z,100.00
2024-02-02T16:38:28.353Z,100.00
2024-02-02T16:41:30.500Z,100.00
2024-02-02T16:44:32.889Z,100.00
2024-02-02T16:47:34.977Z,100.00
2024-02-02T16:50:38.271Z,100.00
2024-02-02T16:53:43.096Z,100.00
2024-02-02T16:56:45.390Z,100.00
2024-02-02T16:59:48.055Z,100.00
2024-02-02T17:02:52.335Z,100.00
2024-02-02T17:05:54.555Z,100.00
2024-02-02T17:08:57.550Z,100.00
2024-02-02T17:11:59.846Z,100.00
2024-02-02T17:15:01.931Z,100.00
2024-02-02T17:18:04.298Z,100.00
2024-02-02T17:21:09.487Z,100.00
2024-02-02T17:24:11.770Z,100.00
2024-02-02T17:27:13.905Z,100.00
2024-02-02T17:30:18.174Z,100.00
2024-02-02T17:33:21.371Z,100.00
2024-02-02T17:36:23.619Z,100.00
2024-02-02T17:39:25.749Z,100.00
2024-02-02T17:42:27.867Z,100.00
2024-02-02T17:45:29.988Z,100.00
2024-02-02T17:48:33.428Z,100.00
2024-02-02T17:51:35.618Z,100.00
2024-02-02T17:54:37.763Z,100.00
2024-02-02T17:57:40.088Z,100.00
2024-02-02T18:00:42.440Z,100.00
2024-02-02T18:03:44.709Z,100.00
2024-02-02T18:06:46.935Z,100.00
2024-02-02T18:09:49.212Z,100.00
2024-02-02T18:12:52.011Z,100.00
2024-02-02T18:15:54.485Z,100.00
2024-02-02T18:18:56.813Z,100.00
2024-02-02T18:21:58.983Z,100.00
2024-02-02T18:25:01.250Z,100.00
2024-02-02T18:28:03.698Z,99.27
2024-02-02T18:31:05.904Z,98.56
2024-02-02T18:34:08.357Z,98.50
2024-02-02T18:37:10.705Z,98.12
2024-02-02T18:40:13.675Z,97.72
2024-02-02T18:43:15.825Z,96.48
2024-02-02T18:46:27.594Z,96.08
2024-02-02T18:49:33.255Z,95.79
2024-02-02T18:52:36.368Z,94.66
2024-02-02T18:55:38.675Z,94.51
2024-02-02T18:58:46.136Z,93.67
2024-02-02T19:01:49.261Z,92.97
2024-02-02T19:04:52.339Z,92.93
2024-02-02T19:07:54.744Z,92.41
2024-02-02T19:10:57.154Z,92.42
2024-02-02T19:14:00.580Z,91.45
2024-02-02T19:17:02.716Z,91.21
2024-02-02T19:20:05.337Z,90.58
2024-02-02T19:23:07.866Z,90.61
2024-02-02T19:26:10.981Z,89.89
2024-02-02T19:29:13.316Z,89.54
2024-02-02T19:32:16.630Z,89.25
2024-02-02T19:35:18.825Z,89.10
2024-02-02T19:38:20.974Z,87.99
2024-02-02T19:41:27.320Z,89.03
2024-02-02T19:44:29.435Z,88.11
2024-02-02T19:47:31.734Z,87.97
2024-02-02T19:50:33.825Z,87.51
2024-02-02T19:53:36.459Z,87.41
2024-02-02T19:56:38.612Z,86.47
2024-02-02T19:59:41.994Z,86.53
2024-02-02T20:02:48.857Z,86.21
2024-02-02T20:05:51.602Z,85.28
2024-02-02T20:08:53.793Z,87.21
2024-02-02T20:11:56.279Z,89.84
2024-02-02T20:14:58.865Z,89.82
2024-02-02T20:18:03.208Z,89.50
2024-02-02T20:21:05.813Z,90.02
2024-02-02T20:24:08.369Z,88.68
2024-02-02T20:27:10.824Z,89.14
2024-02-02T20:30:14.132Z,88.79
2024-02-02T20:33:16.854Z,89.06
2024-02-02T20:36:21.315Z,89.65
2024-02-02T20:39:23.714Z,89.59
2024-02-02T20:42:26.023Z,89.77
2024-02-02T20:45:28.835Z,89.47
2024-02-02T20:48:31.094Z,88.41
2024-02-02T20:51:33.494Z,88.95
2024-02-02T20:54:35.783Z,83.28
2024-02-02T20:57:38.162Z,83.01
2024-02-02T21:00:40.810Z,81.34
2024-02-02T21:03:43.335Z,76.92
2024-02-02T21:06:45.859Z,73.39
2024-02-02T21:09:48.265Z,71.45
2024-02-02T21:12:50.486Z,69.65
2024-02-02T21:15:54.037Z,69.85
2024-02-02T21:18:57.829Z,69.04
2024-02-02T21:22:02.845Z,68.50
2024-02-02T21:25:06.014Z,68.88
2024-02-02T21:28:08.241Z,68.72
2024-02-02T21:31:10.657Z,67.67
2024-02-02T21:34:13.035Z,68.43
2024-02-02T21:37:15.655Z,68.98
2024-02-02T21:40:18.076Z,68.21
2024-02-02T21:43:20.275Z,68.31
2024-02-02T21:46:22.665Z,68.07
2024-02-02T21:49:24.960Z,67.34
2024-02-02T21:52:27.374Z,67.36
2024-02-02T21:55:29.565Z,68.37
2024-02-02T21:58:32.535Z,67.95
2024-02-02T22:01:39.418Z,67.53
2024-02-02T22:04:41.698Z,67.97
2024-02-02T22:07:43.962Z,67.05
2024-02-02T22:10:46.302Z,66.79
2024-02-02T22:13:49.521Z,67.63
2024-02-02T22:16:51.856Z,66.94
2024-02-02T22:19:54.241Z,67.65
2024-02-02T22:22:56.468Z,67.50
2024-02-02T22:25:59.055Z,66.66
2024-02-02T22:29:02.078Z,66.72
2024-02-02T22:32:04.892Z,66.39
2024-02-02T22:35:07.853Z,66.40
2024-02-02T22:38:10.152Z,65.51
2024-02-02T22:41:32.221Z,65.88
2024-02-02T22:44:36.504Z,65.74
2024-02-02T22:47:39.658Z,66.28
2024-02-02T22:50:41.896Z,66.27
2024-02-02T22:53:44.265Z,66.50
2024-02-02T22:56:46.355Z,67.48
2024-02-02T22:59:53.642Z,66.73
2024-02-02T23:03:01.773Z,66.79
2024-02-02T23:06:05.343Z,67.62
2024-02-02T23:09:07.687Z,67.11
2024-02-02T23:12:10.913Z,67.25
2024-02-02T23:15:13.292Z,67.15
2024-02-02T23:18:15.662Z,67.22
2024-02-02T23:21:17.873Z,67.27
2024-02-02T23:24:20.046Z,67.63
2024-02-02T23:27:22.344Z,67.44
2024-02-02T23:30:24.790Z,68.05
2024-02-02T23:33:27.788Z,68.23
2024-02-02T23:36:30.089Z,67.53
2024-02-02T23:39:32.286Z,68.60
2024-02-02T23:42:34.598Z,67.59
2024-02-02T23:45:36.793Z,69.34
2024-02-02T23:48:39.120Z,68.77
2024-02-02T23:51:41.748Z,69.04
2024-02-02T23:54:44.221Z,68.77
2024-02-02T23:57:46.641Z,68.58
